createdAt,value
2019-02-09T00:01:10.239Z,3.80
2019-02-09T00:03:37.814Z,3.03
2019-02-09T00:06:05.697Z,3.90
2019-02-09T00:08:33.256Z,3.47
2019-02-09T00:11:00.699Z,3.13
2019-02-09T00:13:28.288Z,3.50
2019-02-09T00:15:56.008Z,4.10
2019-02-09T00:18:23.537Z,3.90
2019-02-09T00:20:51.177Z,3.70
2019-02-09T00:23:18.634Z,3.53
2019-02-09T00:25:46.103Z,3.60
2019-02-09T00:28:13.559Z,3.60
2019-02-09T00:30:40.947Z,3.90
2019-02-09T00:33:08.514Z,3.10
2019-02-09T00:35:35.877Z,3.43
2019-02-09T00:38:03.303Z,3.63
2019-02-09T00:40:30.775Z,3.67
2019-02-09T00:42:58.268Z,3.63
2019-02-09T00:45:25.838Z,4.30
2019-02-09T00:47:53.719Z,3.20
2019-02-09T00:50:21.418Z,3.10
2019-02-09T00:52:48.968Z,3.50
2019-02-09T00:55:17.762Z,3.40
2019-02-09T00:57:45.268Z,3.40
2019-02-09T01:00:15.824Z,3.57
2019-02-09T01:02:43.370Z,3.83
2019-02-09T01:05:12.022Z,3.90
2019-02-09T01:07:39.448Z,3.57
2019-02-09T01:10:09.133Z,3.23
2019-02-09T01:12:40.586Z,4.20
2019-02-09T01:15:11.068Z,3.53
2019-02-09T01:17:38.475Z,4.47
2019-02-09T01:20:07.522Z,4.40
2019-02-09T01:22:34.844Z,4.00
2019-02-09T01:25:02.327Z,3.60
2019-02-09T01:27:29.930Z,3.10
2019-02-09T01:30:02.182Z,3.33
2019-02-09T01:32:26.478Z,3.40
2019-02-09T01:34:53.874Z,4.80
2019-02-09T01:37:21.319Z,4.07
2019-02-09T01:39:49.960Z,4.27
2019-02-09T01:42:17.434Z,3.90
2019-02-09T01:44:44.967Z,3.70
2019-02-09T01:47:12.368Z,3.70
2019-02-09T01:49:39.735Z,3.83
2019-02-09T01:52:07.052Z,4.10
2019-02-09T01:54:34.547Z,3.30
2019-02-09T01:57:02.091Z,3.20
2019-02-09T01:59:29.742Z,4.03
2019-02-09T02:01:57.150Z,4.90
2019-02-09T02:04:24.670Z,3.50
2019-02-09T02:06:53.195Z,3.33
2019-02-09T02:09:20.647Z,3.80
2019-02-09T02:11:48.058Z,3.50
2019-02-09T02:14:15.549Z,4.17
2019-02-09T02:16:42.943Z,3.70
2019-02-09T02:19:10.454Z,3.80
2019-02-09T02:21:38.079Z,3.57
2019-02-09T02:24:05.505Z,3.70
2019-02-09T02:26:33.015Z,4.20
2019-02-09T02:29:00.553Z,4.20
2019-02-09T02:31:27.966Z,3.60
2019-02-09T02:33:55.368Z,3.50
2019-02-09T02:36:22.853Z,3.60
2019-02-09T02:38:50.313Z,3.83
2019-02-09T02:41:17.849Z,3.70
2019-02-09T02:43:45.284Z,3.77
2019-02-09T02:46:12.885Z,4.10
2019-02-09T02:48:40.474Z,4.50
2019-02-09T02:51:07.979Z,4.00
2019-02-09T02:53:35.587Z,3.90
2019-02-09T02:56:03.253Z,3.90
2019-02-09T02:58:30.784Z,3.90
2019-02-09T03:00:58.211Z,3.90
2019-02-09T03:03:25.511Z,4.40
2019-02-09T03:05:52.826Z,4.97
2019-02-09T03:08:20.207Z,4.70
2019-02-09T03:10:48.286Z,4.43
2019-02-09T03:13:15.679Z,4.23
2019-02-09T03:15:43.205Z,3.87
2019-02-09T03:18:10.638Z,4.30
2019-02-09T03:20:38.144Z,5.10
2019-02-09T03:23:05.477Z,4.03
2019-02-09T03:25:33.435Z,5.30
2019-02-09T03:28:00.878Z,4.30
2019-02-09T03:30:28.239Z,4.50
2019-02-09T03:32:55.743Z,4.57
2019-02-09T03:35:23.195Z,4.87
2019-02-09T03:37:50.934Z,4.57
2019-02-09T03:40:19.430Z,4.30
2019-02-09T03:42:46.818Z,5.10
2019-02-09T03:45:34.054Z,5.20
2019-02-09T03:48:01.700Z,4.70
2019-02-09T03:50:29.801Z,4.53
2019-02-09T03:52:57.585Z,4.57
2019-02-09T03:55:25.149Z,4.77
2019-02-09T03:57:52.725Z,5.33
2019-02-09T04:00:21.996Z,5.62
2019-02-09T04:02:49.516Z,5.00
2019-02-09T04:05:17.629Z,5.78
2019-02-09T04:07:45.235Z,6.17
2019-02-09T04:10:14.450Z,5.30
2019-02-09T04:12:41.958Z,5.43
2019-02-09T04:15:10.089Z,5.53
2019-02-09T04:17:37.478Z,5.07
2019-02-09T04:20:07.854Z,5.47
2019-02-09T04:22:35.303Z,6.07
2019-02-09T04:25:03.306Z,6.83
2019-02-09T04:27:30.773Z,6.13
2019-02-09T04:29:58.216Z,6.17
2019-02-09T04:32:25.806Z,6.93
2019-02-09T04:34:53.412Z,5.80
2019-02-09T04:37:20.985Z,6.60
2019-02-09T04:39:48.584Z,6.30
2019-02-09T04:42:16.134Z,6.23
2019-02-09T04:44:43.585Z,6.70
2019-02-09T04:47:11.119Z,6.40
2019-02-09T04:49:38.591Z,6.30
2019-02-09T04:52:07.209Z,5.87
2019-02-09T04:54:34.594Z,6.10
2019-02-09T04:57:01.913Z,6.07
2019-02-09T04:59:29.437Z,7.70
2019-02-09T05:01:56.926Z,7.40
2019-02-09T05:04:24.854Z,7.10
2019-02-09T05:06:52.366Z,6.17
2019-02-09T05:09:20.105Z,6.93
2019-02-09T05:11:47.582Z,7.30
2019-02-09T05:14:15.020Z,6.70
2019-02-09T05:16:42.509Z,8.20
2019-02-09T05:19:09.987Z,7.37
2019-02-09T05:21:37.428Z,8.67
2019-02-09T05:24:04.957Z,8.70
2019-02-09T05:26:32.378Z,9.20
2019-02-09T05:28:59.731Z,9.40
2019-02-09T05:31:27.245Z,7.80
2019-02-09T05:33:54.534Z,9.40
2019-02-09T05:36:22.259Z,9.60
2019-02-09T05:38:50.778Z,9.60
2019-02-09T05:41:18.488Z,8.93
2019-02-09T05:43:45.918Z,8.37
2019-02-09T05:46:13.418Z,9.30
2019-02-09T05:48:41.040Z,7.10
2019-02-09T05:51:08.673Z,8.90
2019-02-09T05:53:36.146Z,8.80
2019-02-09T05:56:04.769Z,7.87
2019-02-09T05:58:32.618Z,6.87
2019-02-09T06:01:00.090Z,6.73
2019-02-09T06:03:27.586Z,6.30
2019-02-09T06:05:55.119Z,6.07
2019-02-09T06:08:22.498Z,5.47
2019-02-09T06:10:50.007Z,5.50
2019-02-09T06:13:17.423Z,4.70
2019-02-09T06:15:45.035Z,5.87
2019-02-09T06:18:12.412Z,5.00
2019-02-09T06:20:39.947Z,5.03
2019-02-09T06:23:07.407Z,4.60
2019-02-09T06:25:35.194Z,4.50
2019-02-09T06:28:03.135Z,4.10
2019-02-09T06:30:31.089Z,3.20
2019-02-09T06:32:58.942Z,3.73
2019-02-09T06:35:27.577Z,2.50
2019-02-09T06:37:55.245Z,2.23
2019-02-09T06:40:22.928Z,2.40
2019-02-09T06:42:50.403Z,2.43
2019-02-09T06:45:20.174Z,2.53
2019-02-09T06:47:47.641Z,2.30
2019-02-09T06:50:17.546Z,3.40
2019-02-09T06:52:45.234Z,2.90
2019-02-09T06:55:13.827Z,3.00
2019-02-09T06:57:41.359Z,2.43
2019-02-09T07:00:11.293Z,2.33
2019-02-09T07:02:38.784Z,2.00
2019-02-09T07:05:09.248Z,2.10
2019-02-09T07:07:36.548Z,1.90
2019-02-09T07:10:05.026Z,2.07
2019-02-09T07:12:32.634Z,2.70
2019-02-09T07:15:00.239Z,2.53
2019-02-09T07:17:27.760Z,2.60
2019-02-09T07:19:55.113Z,2.40
2019-02-09T07:22:22.549Z,2.33
2019-02-09T07:24:50.026Z,2.23
2019-02-09T07:27:17.700Z,2.70
2019-02-09T07:29:45.273Z,4.70
2019-02-09T07:32:12.725Z,2.63
2019-02-09T07:34:40.266Z,2.80
2019-02-09T07:37:07.852Z,2.80
2019-02-09T07:39:35.769Z,3.37
2019-02-09T07:42:03.545Z,3.13
2019-02-09T07:44:31.084Z,3.40
2019-02-09T07:46:58.631Z,2.77
2019-02-09T07:49:26.085Z,3.00
2019-02-09T07:51:53.623Z,3.30
2019-02-09T07:54:21.034Z,2.90
2019-02-09T07:56:48.496Z,2.43
2019-02-09T07:59:16.019Z,2.47
2019-02-09T08:01:43.463Z,2.83
2019-02-09T08:04:10.928Z,2.50
2019-02-09T08:06:38.406Z,3.00
2019-02-09T08:09:10.967Z,2.37
2019-02-09T08:11:39.031Z,3.33
2019-02-09T08:14:06.484Z,3.00
2019-02-09T08:16:33.946Z,2.43
2019-02-09T08:19:01.452Z,2.80
2019-02-09T08:21:28.978Z,2.90
2019-02-09T08:23:56.437Z,3.20
2019-02-09T08:26:24.375Z,2.90
2019-02-09T08:28:52.897Z,2.73
2019-02-09T08:31:20.507Z,3.40
2019-02-09T08:33:47.991Z,3.27
2019-02-09T08:36:15.315Z,2.20
2019-02-09T08:38:42.726Z,3.13
2019-02-09T08:41:10.160Z,2.23
2019-02-09T08:43:38.001Z,3.08
2019-02-09T08:46:05.470Z,2.83
2019-02-09T08:48:33.051Z,2.60
2019-02-09T08:51:04.397Z,2.20
2019-02-09T08:53:31.838Z,5.00
2019-02-09T08:55:59.386Z,3.87
2019-02-09T08:58:26.847Z,3.30
2019-02-09T09:00:54.251Z,2.60
2019-02-09T09:03:21.704Z,3.40
2019-02-09T09:05:49.089Z,3.03
2019-02-09T09:08:16.593Z,2.47
2019-02-09T09:10:44.153Z,2.80
2019-02-09T09:13:11.788Z,4.37
2019-02-09T09:15:41.794Z,4.10
2019-02-09T09:18:09.380Z,3.33
2019-02-09T09:20:39.112Z,3.33
2019-02-09T09:23:06.643Z,3.07
2019-02-09T09:25:34.061Z,3.00
2019-02-09T09:28:01.776Z,2.73
2019-02-09T09:30:29.568Z,3.40
2019-02-09T09:32:56.902Z,2.50
2019-02-09T09:35:24.507Z,3.03
2019-02-09T09:37:52.123Z,3.07
2019-02-09T09:40:24.895Z,2.87
2019-02-09T09:42:52.406Z,3.43
2019-02-09T09:45:22.120Z,2.63
2019-02-09T09:47:49.524Z,3.53
2019-02-09T09:50:17.710Z,2.90
2019-02-09T09:52:45.223Z,3.70
2019-02-09T09:55:13.256Z,2.70
2019-02-09T09:57:40.696Z,2.33
2019-02-09T10:00:10.133Z,2.80
2019-02-09T10:02:37.600Z,3.03
2019-02-09T10:05:06.250Z,3.03
2019-02-09T10:07:33.707Z,3.43
2019-02-09T10:10:01.161Z,2.57
2019-02-09T10:12:28.707Z,2.80
2019-02-09T10:14:56.343Z,3.80
2019-02-09T10:17:24.070Z,3.47
2019-02-09T10:19:51.498Z,3.63
2019-02-09T10:22:19.033Z,3.37
2019-02-09T10:24:46.743Z,4.07
2019-02-09T10:27:18.539Z,4.20
2019-02-09T10:29:45.990Z,3.70
2019-02-09T10:32:13.817Z,3.30
2019-02-09T10:34:41.373Z,3.80
2019-02-09T10:37:08.907Z,3.83
2019-02-09T10:39:36.948Z,3.63
2019-02-09T10:42:04.441Z,3.57
2019-02-09T10:44:31.991Z,3.53
2019-02-09T10:46:59.589Z,3.87
2019-02-09T10:49:27.174Z,4.60
2019-02-09T10:51:54.569Z,3.20
2019-02-09T10:54:22.081Z,4.30
2019-02-09T10:56:49.685Z,3.07
2019-02-09T10:59:17.182Z,3.40
2019-02-09T11:01:44.878Z,3.30
2019-02-09T11:04:12.610Z,2.60
2019-02-09T11:06:40.075Z,4.17
2019-02-09T11:09:14.349Z,3.87
2019-02-09T11:11:41.871Z,3.20
2019-02-09T11:14:09.187Z,3.23
2019-02-09T11:16:36.611Z,4.00
2019-02-09T11:19:04.110Z,3.57
2019-02-09T11:21:31.518Z,3.60
2019-02-09T11:23:58.931Z,3.50
2019-02-09T11:26:26.386Z,4.05
2019-02-09T11:28:53.886Z,3.50
2019-02-09T11:31:21.152Z,2.63
2019-02-09T11:33:48.679Z,4.93
2019-02-09T11:36:16.303Z,2.63
2019-02-09T11:38:43.672Z,3.00
2019-02-09T11:41:11.147Z,2.53
2019-02-09T11:43:38.586Z,3.40
2019-02-09T11:46:06.137Z,3.20
2019-02-09T11:48:33.623Z,2.57
2019-02-09T11:51:01.070Z,2.60
2019-02-09T11:53:28.492Z,3.43
2019-02-09T11:55:55.978Z,2.43
2019-02-09T11:58:23.352Z,2.70
2019-02-09T12:00:51.796Z,2.57
2019-02-09T12:03:19.334Z,3.80
2019-02-09T12:05:46.839Z,5.30
2019-02-09T12:08:15.281Z,2.00
2019-02-09T12:10:42.756Z,3.72
2019-02-09T12:13:10.271Z,3.77
2019-02-09T12:15:37.825Z,4.00
2019-02-09T12:18:06.903Z,4.87
2019-02-09T12:20:34.187Z,3.10
2019-02-09T12:23:01.737Z,2.53
2019-02-09T12:25:31.636Z,3.10
2019-02-09T12:27:59.192Z,2.87
2019-02-09T12:30:28.855Z,3.10
2019-02-09T12:32:56.287Z,3.47
2019-02-09T12:35:24.164Z,2.77
2019-02-09T12:37:51.582Z,2.77
2019-02-09T12:40:20.865Z,2.70
2019-02-09T12:42:48.664Z,2.60
2019-02-09T12:45:16.574Z,2.60
2019-02-09T12:47:44.087Z,3.20
2019-02-09T12:50:12.814Z,2.70
2019-02-09T12:52:40.304Z,2.60
2019-02-09T12:55:07.805Z,3.30
2019-02-09T12:57:35.371Z,2.57
2019-02-09T13:00:05.883Z,4.20
2019-02-09T13:02:33.509Z,4.25
2019-02-09T13:05:01.055Z,3.37
2019-02-09T13:07:28.818Z,3.33
2019-02-09T13:09:56.959Z,2.93
2019-02-09T13:12:24.555Z,2.60
2019-02-09T13:14:52.039Z,2.73
2019-02-09T13:17:19.402Z,3.00
2019-02-09T13:19:46.931Z,2.63
2019-02-09T13:22:14.351Z,2.33
2019-02-09T13:24:41.799Z,3.40
2019-02-09T13:27:09.233Z,3.00
2019-02-09T13:29:37.133Z,3.30
2019-02-09T13:32:04.449Z,3.17
2019-02-09T13:34:32.131Z,2.80
2019-02-09T13:36:59.503Z,3.20
2019-02-09T13:39:26.978Z,3.20
2019-02-09T13:41:54.282Z,2.90
2019-02-09T13:44:22.031Z,3.50
2019-02-09T13:46:50.112Z,3.60
2019-02-09T13:49:17.596Z,3.07
2019-02-09T13:51:45.173Z,3.47
2019-02-09T13:54:32.145Z,4.23
2019-02-09T13:56:59.633Z,2.73
2019-02-09T13:59:27.089Z,3.30
2019-02-09T14:01:54.698Z,3.53
2019-02-09T14:04:34.487Z,3.20
2019-02-09T14:07:02.550Z,2.60
2019-02-09T14:09:30.724Z,3.33
2019-02-09T14:11:58.196Z,3.03
2019-02-09T14:14:26.044Z,3.40
2019-02-09T14:16:55.038Z,2.90
2019-02-09T14:19:23.389Z,2.90
2019-02-09T14:21:51.411Z,2.87
2019-02-09T14:24:18.958Z,3.50
2019-02-09T14:26:46.297Z,4.40
2019-02-09T14:29:14.862Z,3.00
2019-02-09T14:31:42.295Z,3.30
2019-02-09T14:34:09.636Z,2.00
2019-02-09T14:36:38.289Z,2.52
2019-02-09T14:39:10.047Z,2.30
2019-02-09T14:41:38.237Z,2.17
2019-02-09T14:44:05.936Z,3.03
2019-02-09T14:46:33.212Z,2.90
2019-02-09T14:49:00.538Z,2.13
2019-02-09T14:51:27.825Z,2.37
2019-02-09T14:53:55.322Z,1.80
2019-02-09T14:56:22.709Z,1.80
2019-02-09T14:58:50.186Z,3.00
2019-02-09T15:01:17.542Z,2.50
2019-02-09T15:03:45.024Z,2.50
2019-02-09T15:06:12.563Z,3.20
2019-02-09T15:08:40.022Z,3.00
2019-02-09T15:11:07.501Z,3.33
2019-02-09T15:13:34.990Z,2.37
2019-02-09T15:16:22.486Z,2.50
2019-02-09T15:18:50.902Z,3.05
2019-02-09T15:21:18.389Z,2.47
2019-02-09T15:23:45.950Z,2.10
2019-02-09T15:26:13.530Z,2.30
2019-02-09T15:28:41.052Z,1.97
2019-02-09T15:31:08.538Z,2.30
2019-02-09T15:33:35.993Z,3.13
2019-02-09T15:36:03.730Z,3.00
2019-02-09T15:38:32.250Z,2.93
2019-02-09T15:40:59.762Z,2.90
2019-02-09T15:43:27.104Z,3.13
2019-02-09T15:45:54.447Z,5.83
2019-02-09T15:48:22.440Z,3.40
2019-02-09T15:50:50.070Z,2.90
2019-02-09T15:53:17.506Z,3.57
2019-02-09T15:55:44.920Z,3.10
2019-02-09T15:58:13.633Z,4.33
2019-02-09T16:00:41.263Z,3.23
2019-02-09T16:03:08.630Z,3.40
2019-02-09T16:05:36.105Z,4.13
2019-02-09T16:08:04.509Z,3.33
2019-02-09T16:10:31.996Z,3.90
2019-02-09T16:12:59.574Z,4.23
2019-02-09T16:15:27.323Z,3.40
2019-02-09T16:17:54.730Z,3.57
2019-02-09T16:20:23.925Z,3.60
2019-02-09T16:22:51.341Z,4.22
2019-02-09T16:25:18.788Z,3.93
2019-02-09T16:27:46.365Z,4.63
2019-02-09T16:30:18.555Z,3.63
2019-02-09T16:32:45.789Z,5.90
2019-02-09T16:35:14.838Z,4.07
2019-02-09T16:37:42.451Z,3.43
2019-02-09T16:40:12.919Z,4.13
2019-02-09T16:42:40.349Z,4.40
2019-02-09T16:45:11.668Z,3.43
2019-02-09T16:47:41.386Z,4.13
2019-02-09T16:50:09.143Z,3.77
2019-02-09T16:52:40.054Z,3.27
2019-02-09T16:55:08.036Z,4.17
2019-02-09T16:57:35.406Z,3.80
2019-02-09T17:00:04.336Z,5.00
2019-02-09T17:02:32.039Z,3.70
2019-02-09T17:04:59.800Z,3.60
2019-02-09T17:07:27.128Z,5.33
2019-02-09T17:09:54.413Z,4.93
2019-02-09T17:12:22.101Z,4.30
2019-02-09T17:14:49.586Z,4.40
2019-02-09T17:17:17.070Z,4.17
2019-02-09T17:19:44.667Z,4.30
2019-02-09T17:22:12.061Z,5.43
2019-02-09T17:24:39.447Z,4.07
2019-02-09T17:27:06.768Z,4.73
2019-02-09T17:29:34.368Z,4.93
2019-02-09T17:32:01.847Z,4.40
2019-02-09T17:34:29.299Z,4.63
2019-02-09T17:36:56.793Z,4.83
2019-02-09T17:39:24.563Z,5.05
2019-02-09T17:41:51.989Z,5.17
2019-02-09T17:44:19.523Z,5.20
2019-02-09T17:46:46.942Z,4.13
2019-02-09T17:49:27.593Z,3.97
2019-02-09T17:52:08.082Z,3.03
2019-02-09T17:54:35.560Z,4.00
2019-02-09T17:57:03.162Z,3.70
2019-02-09T17:59:30.614Z,3.17
2019-02-09T18:01:58.277Z,5.10
2019-02-09T18:04:25.617Z,3.67
2019-02-09T18:06:53.126Z,5.40
2019-02-09T18:09:20.514Z,4.03
2019-02-09T18:11:47.923Z,3.70
2019-02-09T18:14:15.458Z,2.90
2019-02-09T18:16:42.803Z,3.10
2019-02-09T18:19:10.406Z,3.17
2019-02-09T18:21:39.420Z,4.03
2019-02-09T18:24:06.870Z,3.23
2019-02-09T18:26:34.228Z,3.23
2019-02-09T18:29:01.988Z,3.80
2019-02-09T18:31:29.801Z,4.47
2019-02-09T18:33:57.318Z,3.67
2019-02-09T18:36:24.614Z,5.90
2019-02-09T18:38:52.122Z,3.80
2019-02-09T18:41:19.694Z,3.87
2019-02-09T18:43:47.422Z,3.40
2019-02-09T18:46:15.002Z,3.47
2019-02-09T18:48:42.469Z,3.80
2019-02-09T18:51:09.899Z,3.70
2019-02-09T18:53:37.712Z,3.67
2019-02-09T18:56:06.457Z,3.87
2019-02-09T18:58:33.980Z,3.20
2019-02-09T19:01:01.499Z,3.40
2019-02-09T19:03:30.070Z,3.90
2019-02-09T19:05:58.447Z,4.90
2019-02-09T19:08:25.910Z,4.07
2019-02-09T19:10:53.499Z,5.03
2019-02-09T19:13:22.211Z,4.83
2019-02-09T19:15:49.622Z,3.30
2019-02-09T19:18:17.258Z,3.10
2019-02-09T19:20:50.955Z,3.17
2019-02-09T19:23:18.359Z,3.43
2019-02-09T19:25:58.030Z,4.40
2019-02-09T19:28:25.799Z,3.27
2019-02-09T19:30:53.202Z,3.70
2019-02-09T19:33:20.561Z,3.30
2019-02-09T19:35:48.155Z,3.73
2019-02-09T19:38:15.736Z,3.17
2019-02-09T19:40:43.318Z,3.33
2019-02-09T19:43:10.999Z,3.40
2019-02-09T19:45:39.160Z,4.13
2019-02-09T19:48:06.657Z,3.23
2019-02-09T19:50:34.093Z,3.63
2019-02-09T19:53:01.491Z,3.62
2019-02-09T19:55:30.131Z,3.60
2019-02-09T19:57:57.614Z,3.90
2019-02-09T20:00:27.434Z,3.50
2019-02-09T20:02:54.926Z,3.77
2019-02-09T20:05:22.573Z,2.80
2019-02-09T20:07:50.302Z,3.00
2019-02-09T20:10:21.003Z,3.30
2019-02-09T20:12:48.644Z,3.00
2019-02-09T20:15:15.959Z,3.33
2019-02-09T20:17:43.387Z,3.63
2019-02-09T20:20:11.887Z,3.60
2019-02-09T20:22:39.421Z,2.80
2019-02-09T20:25:10.661Z,2.70
2019-02-09T20:27:40.535Z,3.87
2019-02-09T20:30:13.152Z,3.03
2019-02-09T20:32:40.802Z,5.07
2019-02-09T20:35:09.476Z,3.80
2019-02-09T20:37:37.077Z,3.77
2019-02-09T20:40:07.258Z,4.30
2019-02-09T20:42:34.566Z,3.27
2019-02-09T20:45:01.997Z,3.10
2019-02-09T20:47:31.161Z,3.97
2019-02-09T20:49:58.790Z,2.87
2019-02-09T20:52:26.154Z,3.67
2019-02-09T20:54:54.841Z,3.30
2019-02-09T20:57:22.359Z,6.90
2019-02-09T20:59:49.828Z,2.83
2019-02-09T21:02:17.226Z,3.00
2019-02-09T21:04:44.622Z,3.80
2019-02-09T21:07:12.274Z,3.63
2019-02-09T21:09:42.148Z,4.30
2019-02-09T21:12:09.872Z,3.80
2019-02-09T21:14:37.352Z,3.80
2019-02-09T21:17:04.963Z,3.43
2019-02-09T21:19:32.370Z,4.17
2019-02-09T21:21:59.801Z,4.30
2019-02-09T21:24:27.227Z,3.80
2019-02-09T21:26:54.754Z,4.37
2019-02-09T21:29:22.180Z,3.70
2019-02-09T21:31:49.645Z,3.40
2019-02-09T21:34:16.957Z,3.67
2019-02-09T21:36:44.294Z,3.73
2019-02-09T21:39:11.788Z,4.30
2019-02-09T21:41:39.461Z,4.77
2019-02-09T21:44:06.913Z,3.90
2019-02-09T21:46:34.529Z,3.63
2019-02-09T21:49:01.858Z,3.73
2019-02-09T21:51:29.399Z,5.20
2019-02-09T21:53:56.819Z,3.57
2019-02-09T21:56:25.514Z,4.10
2019-02-09T21:58:53.437Z,4.47
2019-02-09T22:01:21.162Z,5.00
2019-02-09T22:03:48.718Z,5.47
2019-02-09T22:06:16.144Z,3.93
2019-02-09T22:08:43.648Z,3.57
2019-02-09T22:11:11.191Z,3.90
2019-02-09T22:13:39.208Z,3.80
2019-02-09T22:16:06.854Z,4.33
2019-02-09T22:18:34.371Z,4.07
2019-02-09T22:21:02.990Z,4.20
2019-02-09T22:23:30.579Z,3.90
2019-02-09T22:25:57.909Z,3.23
2019-02-09T22:28:25.423Z,5.30
2019-02-09T22:30:52.941Z,4.27
2019-02-09T22:33:24.790Z,5.00
2019-02-09T22:35:49.977Z,5.20
2019-02-09T22:38:17.977Z,5.13
2019-02-09T22:40:45.393Z,3.57
2019-02-09T22:43:12.790Z,4.33
2019-02-09T22:45:40.634Z,4.60
2019-02-09T22:48:09.290Z,3.90
2019-02-09T22:50:42.083Z,4.43
2019-02-09T22:53:09.510Z,3.50
2019-02-09T22:55:36.898Z,4.83
2019-02-09T22:58:05.778Z,3.70
2019-02-09T23:00:51.542Z,3.67
2019-02-09T23:03:36.556Z,3.77
2019-02-09T23:06:34.114Z,4.00
2019-02-09T23:09:01.649Z,3.83
2019-02-09T23:11:30.898Z,4.37
2019-02-09T23:13:58.331Z,5.30
2019-02-09T23:16:25.954Z,4.40
2019-02-09T23:18:53.361Z,4.00
2019-02-09T23:21:20.786Z,3.03
2019-02-09T23:23:48.125Z,4.20
2019-02-09T23:26:15.654Z,4.70
2019-02-09T23:28:43.172Z,4.67
2019-02-09T23:31:10.642Z,4.30
2019-02-09T23:33:37.936Z,4.30
2019-02-09T23:36:05.307Z,4.13
2019-02-09T23:38:32.650Z,4.20
2019-02-09T23:41:00.097Z,4.93
2019-02-09T23:43:27.693Z,6.57
2019-02-09T23:45:55.071Z,4.37
2019-02-09T23:48:22.538Z,4.30
2019-02-09T23:50:50.070Z,4.03
2019-02-09T23:53:17.470Z,4.00
2019-02-09T23:55:45.045Z,4.80
2019-02-09T23:58:12.453Z,3.93
